Observation data for Hereford on 03/24/2019      Previous  Date  Next       Current Mesonet Observations  Soil Data  Daily Summary Page  Observations in Plain Language
KHES 240505Z 25008KT 06/01 A2999 RMK A01 T00620013  RH  072%=      5-min Rain = 0
KHES 240510Z 25008KT 06/01 A2999 RMK A01 T00590014  RH  074%=      5-min Rain = 0
KHES 240515Z 25008KT 06/01 A2999 RMK A01 T00580014  RH  074%=      5-min Rain = 0
KHES 240520Z 26007KT 06/01 A2999 RMK A01 T00560013  RH  075%=      5-min Rain = 0
KHES 240525Z 26008KT 05/01 A2999 RMK A01 T00540012  RH  076%=      5-min Rain = 0
KHES 240530Z 26008KT 05/01 A2999 RMK A01 T00520011  RH  076%=      5-min Rain = 0
KHES 240535Z 26007KT 05/01 A2999 RMK A01 T00500010  RH  076%=      5-min Rain = 0
KHES 240540Z 25008KT 05/01 A2999 RMK A01 T00520011  RH  076%=      5-min Rain = 0
KHES 240545Z 26008KT 05/01 A30 RMK A01 T00540010  RH  075%=      5-min Rain = 0
KHES 240550Z 27008KT 05/01 A2999 RMK A01 T00510011  RH  076%=      5-min Rain = 0
KHES 240555Z 27009KT 05/01 A30 RMK A01 T00520010  RH  075%=      5-min Rain = 0
KHES 240600Z 27010KT 06/01 A30 RMK A01 T00570008  RH  071%=      5-min Rain = 0
KHES 240605Z 28011KT 06/00 A30 RMK A01 T00610004  RH  068%=      5-min Rain = 0
KHES 240610Z 28012KT 07/00 A30 RMK A01 T00650001  RH  064%=      5-min Rain = 0
KHES 240615Z 28012KT 07/00 A30 RMK A01 T00680000  RH  063%=      5-min Rain = 0
KHES 240620Z 28012KT 07/00 A30 RMK A01 T00660001  RH  064%=      5-min Rain = 0
KHES 240625Z 28011KT 07/00 A30 RMK A01 T00650002  RH  065%=      5-min Rain = 0
KHES 240630Z 29012KT 07/00 A30 RMK A01 T00650002  RH  065%=      5-min Rain = 0
KHES 240635Z 29011KT 07/00 A30 RMK A01 T00680001  RH  063%=      5-min Rain = 0
KHES 240640Z 30011KT 07/00 A30 RMK A01 T00690001  RH  063%=      5-min Rain = 0
KHES 240645Z 30011KT 07/00 A30 RMK A01 T00670001  RH  064%=      5-min Rain = 0
KHES 240650Z 31011KT 07/00 A30 RMK A01 T00710000  RH  061%=      5-min Rain = 0
KHES 240655Z 31011KT 08/00 A30 RMK A01 T007500-0  RH  059%=      5-min Rain = 0
KHES 240700Z 31011KT 07/00 A30 RMK A01 T00700001  RH  062%=      5-min Rain = 0
KHES 240705Z 31011KT 07/00 A30 RMK A01 T00690002  RH  063%=      5-min Rain = 0
KHES 240710Z 31011KT 07/00 A30 RMK A01 T00720001  RH  061%=      5-min Rain = 0
KHES 240715Z 31010KT 07/00 A30 RMK A01 T00730001  RH  061%=      5-min Rain = 0
KHES 240720Z 30010KT 07/00 A30 RMK A01 T00710001  RH  062%=      5-min Rain = 0
KHES 240725Z 28008KT 06/00 A3001 RMK A01 T00640002  RH  065%=      5-min Rain = 0
KHES 240730Z 25009KT 06/01 A3001 RMK A01 T00570005  RH  070%=      5-min Rain = 0
KHES 240735Z 25009KT 05/01 A3002 RMK A01 T00530006  RH  072%=      5-min Rain = 0
KHES 240740Z 26009KT 05/01 A3002 RMK A01 T00470005  RH  075%=      5-min Rain = 0
KHES 240745Z 27008KT 05/01 A3002 RMK A01 T00450005  RH  077%=      5-min Rain = 0
KHES 240750Z 29010KT 04/01 A3002 RMK A01 T00440005  RH  076%=      5-min Rain = 0
KHES 240755Z 30011KT 05/00 A3003 RMK A01 T00480004  RH  074%=      5-min Rain = 0
KHES 240800Z 31012G17KT 06/00 A3003 RMK A01 T00590001  RH  067%=      5-min Rain = 0
KHES 240805Z 32012KT 06/00 A3003 RMK A01 T00630001  RH  065%=      5-min Rain = 0
KHES 240810Z 33011KT 06/00 A3003 RMK A01 T00620004  RH  067%=      5-min Rain = 0
KHES 240815Z 34010KT 06/01 A3003 RMK A01 T00590008  RH  070%=      5-min Rain = 0
KHES 240820Z 34011KT 06/01 A3003 RMK A01 T00580010  RH  073%=      5-min Rain = 0
KHES 240825Z 34009KT 06/01 A3003 RMK A01 T00550012  RH  075%=      5-min Rain = 0
KHES 240830Z 35009KT 05/01 A3004 RMK A01 T00530013  RH  077%=      5-min Rain = 0
KHES 240835Z 35008KT 05/01 A3004 RMK A01 T00520014  RH  078%=      5-min Rain = 0
KHES 240840Z 35008KT 05/02 A3004 RMK A01 T00510016  RH  079%=      5-min Rain = 0
KHES 240845Z 35007KT 05/02 A3004 RMK A01 T00510016  RH  079%=      5-min Rain = 0
KHES 240850Z 36008KT 05/02 A3004 RMK A01 T00500016  RH  080%=      5-min Rain = 0
KHES 240855Z 36007KT 05/02 A3004 RMK A01 T00490016  RH  080%=      5-min Rain = 0
KHES 240900Z 36009KT 05/02 A3004 RMK A01 T00490016  RH  081%=      5-min Rain = 0
KHES 240905Z 36007KT 05/02 A3004 RMK A01 T00490016  RH  080%=      5-min Rain = 0
KHES 240910Z 00006KT 05/01 A3004 RMK A01 T00460014  RH  081%=      5-min Rain = 0
KHES 240915Z 00007KT 05/02 A3004 RMK A01 T00450015  RH  082%=      5-min Rain = 0
KHES 240920Z 00008KT 04/01 A3004 RMK A01 T00430014  RH  082%=      5-min Rain = 0
KHES 240925Z 01009KT 04/01 A3004 RMK A01 T00420014  RH  083%=      5-min Rain = 0
KHES 240930Z 01008KT 04/01 A3004 RMK A01 T00400013  RH  083%=      5-min Rain = 0
KHES 240935Z 01008KT 04/01 A3004 RMK A01 T00400013  RH  084%=      5-min Rain = 0
KHES 240940Z 01007KT 04/01 A3004 RMK A01 T00390012  RH  084%=      5-min Rain = 0
KHES 240945Z 01007KT 04/01 A3004 RMK A01 T00370010  RH  084%=      5-min Rain = 0
KHES 240950Z 00008KT 04/01 A3004 RMK A01 T00360010  RH  085%=      5-min Rain = 0
KHES 240955Z 00007KT 04/01 A3004 RMK A01 T00360011  RH  085%=      5-min Rain = 0
KHES 241000Z 00008KT 04/01 A3004 RMK A01 T00350010  RH  085%=      5-min Rain = 0
KHES 241005Z 00008KT 03/01 A3004 RMK A01 T00340010  RH  085%=      5-min Rain = 0
KHES 241010Z 01009KT 03/01 A3004 RMK A01 T00330009  RH  085%=      5-min Rain = 0
KHES 241015Z 01008KT 03/01 A3004 RMK A01 T00310008  RH  086%=      5-min Rain = 0
KHES 241020Z 01006KT 03/01 A3004 RMK A01 T00290007  RH  086%=      5-min Rain = 0
KHES 241025Z 01006KT 03/01 A3004 RMK A01 T00280007  RH  087%=      5-min Rain = 0
KHES 241030Z 00006KT 03/01 A3004 RMK A01 T00280007  RH  087%=      5-min Rain = 0
KHES 241035Z 00006KT 03/01 A3004 RMK A01 T00280008  RH  088%=      5-min Rain = 0
KHES 241040Z 01006KT 03/01 A3004 RMK A01 T00280008  RH  088%=      5-min Rain = 0
KHES 241045Z 01005KT 03/01 A3005 RMK A01 T00280007  RH  087%=      5-min Rain = 0
KHES 241050Z 00005KT 03/01 A3005 RMK A01 T00260005  RH  087%=      5-min Rain = 0
KHES 241055Z 36006KT 03/01 A3005 RMK A01 T00270007  RH  088%=      5-min Rain = 0
KHES 241100Z 35006KT 03/01 A3005 RMK A01 T00280008  RH  088%=      5-min Rain = 0
KHES 241105Z 36005KT 03/01 A3005 RMK A01 T00280008  RH  088%=      5-min Rain = 0
KHES 241110Z 36004KT 03/01 A3005 RMK A01 T00280007  RH  087%=      5-min Rain = 0
KHES 241115Z 35005KT 03/01 A3005 RMK A01 T00260005  RH  087%=      5-min Rain = 0
KHES 241120Z 34005KT 02/00 A3005 RMK A01 T00210000  RH  087%=      5-min Rain = 0
KHES 241125Z 35005KT 02/M00 A3005 RMK A01 T00181002  RH  088%=      5-min Rain = 0
KHES 241130Z 34006KT 02/M00 A3006 RMK A01 T00151003  RH  088%=      5-min Rain = 0
KHES 241135Z 34006KT 01/M00 A3005 RMK A01 T00141004  RH  089%=      5-min Rain = 0
KHES 241140Z 33005KT 01/M00 A3005 RMK A01 T00131004  RH  090%=      5-min Rain = 0
KHES 241145Z 33006KT 01/M01 A3005 RMK A01 T00121005  RH  090%=      5-min Rain = 0
KHES 241150Z 33007KT 01/M00 A3006 RMK A01 T00121003  RH  091%=      5-min Rain = 0
KHES 241155Z 33007KT 01/M00 A3006 RMK A01 T00131002  RH  091%=      5-min Rain = 0
KHES 241200Z 33008KT 01/M00 A3006 RMK A01 T00131001  RH  091%=      5-min Rain = 0
KHES 241205Z 33007KT 02/00 A3006 RMK A01 T00150000  RH  091%=      5-min Rain = 0
KHES 241210Z 33006KT 02/00 A3006 RMK A01 T00160001  RH  091%=      5-min Rain = 0
KHES 241215Z 34007KT 02/00 A3006 RMK A01 T00160001  RH  091%=      5-min Rain = 0
KHES 241220Z 34008KT 02/00 A3006 RMK A01 T00160000  RH  090%=      5-min Rain = 0
KHES 241225Z 34006KT 02/00 A3006 RMK A01 T00160000  RH  091%=      5-min Rain = 0
KHES 241230Z 34006KT 02/00 A3006 RMK A01 T00160001  RH  091%=      5-min Rain = 0
KHES 241235Z 34007KT 02/00 A3006 RMK A01 T001500-0  RH  090%=      5-min Rain = 0
KHES 241240Z 34006KT 02/M00 A3006 RMK A01 T00151001  RH  090%=      5-min Rain = 0
KHES 241245Z 34005KT 01/M00 A3007 RMK A01 T00141001  RH  090%=      5-min Rain = 0
KHES 241250Z 34006KT 01/M00 A3007 RMK A01 T00141002  RH  090%=      5-min Rain = 0
KHES 241255Z 34007KT 01/M00 A3007 RMK A01 T00141001  RH  091%=      5-min Rain = 0
KHES 241300Z 34008KT 02/00 A3007 RMK A01 T00170001  RH  091%=      5-min Rain = 0
KHES 241305Z 34009KT 02/00 A3007 RMK A01 T00190003  RH  091%=      5-min Rain = 0
KHES 241310Z 34008KT 02/01 A3007 RMK A01 T00210005  RH  090%=      5-min Rain = 0
KHES 241315Z 34007KT 02/01 A3007 RMK A01 T00230006  RH  090%=      5-min Rain = 0
KHES 241320Z 34006KT 03/01 A3007 RMK A01 T00250007  RH  089%=      5-min Rain = 0
KHES 241325Z 34006KT 03/01 A3008 RMK A01 T00260007  RH  089%=      5-min Rain = 0
KHES 241330Z 34006KT 03/01 A3008 RMK A01 T00270009  RH  089%=      5-min Rain = 0
KHES 241335Z 34005KT 03/01 A3008 RMK A01 T00290010  RH  089%=      5-min Rain = 0
KHES 241340Z 34004KT 03/01 A3008 RMK A01 T00320013  RH  089%=      5-min Rain = 0
KHES 241345Z 35004KT 04/02 A3009 RMK A01 T00360016  RH  088%=      5-min Rain = 0
KHES 241350Z 35004KT 04/02 A3009 RMK A01 T00400017  RH  087%=      5-min Rain = 0
KHES 241355Z 35005KT 04/02 A3009 RMK A01 T00420018  RH  086%=      5-min Rain = 0
KHES 241400Z 35005KT 05/02 A3009 RMK A01 T00460021  RH  085%=      5-min Rain = 0
KHES 241405Z 36006KT 05/02 A3009 RMK A01 T00480021  RH  084%=      5-min Rain = 0
KHES 241410Z 35005KT 05/02 A3009 RMK A01 T00510022  RH  083%=      5-min Rain = 0
KHES 241415Z 36005KT 05/02 A301 RMK A01 T00530023  RH  082%=      5-min Rain = 0
KHES 241420Z 00007KT 06/02 A301 RMK A01 T00560024  RH  081%=      5-min Rain = 0
KHES 241425Z 01007KT 06/02 A301 RMK A01 T00580023  RH  080%=      5-min Rain = 0
KHES 241430Z 01006KT 06/03 A301 RMK A01 T00620026  RH  079%=      5-min Rain = 0
KHES 241435Z 02008KT 07/03 A301 RMK A01 T00650027  RH  078%=      5-min Rain = 0
KHES 241440Z 02008KT 07/03 A301 RMK A01 T00690028  RH  076%=      5-min Rain = 0
KHES 241445Z 02007KT 07/03 A3011 RMK A01 T00710028  RH  075%=      5-min Rain = 0
KHES 241450Z 02007KT 07/03 A3011 RMK A01 T00730029  RH  075%=      5-min Rain = 0
KHES 241455Z 02007KT 08/03 A3011 RMK A01 T00760029  RH  074%=      5-min Rain = 0
KHES 241500Z 02008KT 08/03 A3011 RMK A01 T00790031  RH  073%=      5-min Rain = 0
KHES 241505Z 02008KT 08/03 A3011 RMK A01 T00810030  RH  072%=      5-min Rain = 0
KHES 241510Z 02008KT 08/03 A3011 RMK A01 T00830030  RH  070%=      5-min Rain = 0
KHES 241515Z 03008KT 08/03 A3011 RMK A01 T00810026  RH  069%=      5-min Rain = 0
KHES 241520Z 02008KT 08/03 A3011 RMK A01 T00830030  RH  070%=      5-min Rain = 0
KHES 241525Z 02008KT 09/03 A3011 RMK A01 T00850031  RH  070%=      5-min Rain = 0
KHES 241530Z 03008KT 08/03 A3011 RMK A01 T00840031  RH  070%=      5-min Rain = 0
KHES 241535Z 03007KT 09/03 A3011 RMK A01 T00850032  RH  071%=      5-min Rain = 0
KHES 241540Z 04007KT 09/03 A3011 RMK A01 T00860032  RH  070%=      5-min Rain = 0
KHES 241545Z 03006KT 09/03 A3011 RMK A01 T00870034  RH  071%=      5-min Rain = 0
KHES 241550Z 04007KT 09/04 A3011 RMK A01 T00930035  RH  069%=      5-min Rain = 0
KHES 241555Z 04006KT 10/04 A3011 RMK A01 T00950035  RH  068%=      5-min Rain = 0
KHES 241600Z 03006KT 10/04 A3012 RMK A01 T00980037  RH  067%=      5-min Rain = 0
KHES 241605Z 03006KT 10/03 A3012 RMK A01 T00970032  RH  065%=      5-min Rain = 0
KHES 241610Z 02007KT 10/04 A3012 RMK A01 T00980035  RH  066%=      5-min Rain = 0
KHES 241615Z 03006KT 10/04 A3012 RMK A01 T01010037  RH  066%=      5-min Rain = 0
KHES 241620Z 03007KT 10/04 A3012 RMK A01 T01020036  RH  065%=      5-min Rain = 0
KHES 241625Z 04006KT 10/04 A3012 RMK A01 T01000036  RH  065%=      5-min Rain = 0
KHES 241630Z 06005KT 10/04 A3012 RMK A01 T01010036  RH  065%=      5-min Rain = 0
KHES 241635Z 04003KT 10/04 A3012 RMK A01 T01030037  RH  065%=      5-min Rain = 0
KHES 241640Z 04005KT 11/04 A3012 RMK A01 T01050037  RH  064%=      5-min Rain = 0
KHES 241645Z 05005KT 11/04 A3013 RMK A01 T01080040  RH  064%=      5-min Rain = 0
KHES 241650Z 04005KT 11/04 A3013 RMK A01 T01080037  RH  063%=      5-min Rain = 0
KHES 241655Z 05005KT 11/04 A3013 RMK A01 T01090036  RH  062%=      5-min Rain = 0
KHES 241700Z 05005KT 11/04 A3013 RMK A01 T01100038  RH  062%=      5-min Rain = 0
KHES 241705Z 03005KT 11/04 A3013 RMK A01 T01110039  RH  062%=      5-min Rain = 0
KHES 241710Z 05005KT 11/04 A3013 RMK A01 T01130040  RH  062%=      5-min Rain = 0
KHES 241715Z 06004KT 11/04 A3013 RMK A01 T01140039  RH  061%=      5-min Rain = 0
KHES 241720Z 05005KT 12/04 A3013 RMK A01 T01160041  RH  061%=      5-min Rain = 0
KHES 241725Z 04005KT 12/04 A3013 RMK A01 T01150038  RH  060%=      5-min Rain = 0
KHES 241730Z 05003KT 12/04 A3013 RMK A01 T01160040  RH  060%=      5-min Rain = 0
KHES 241735Z 05004KT 12/04 A3013 RMK A01 T01180041  RH  061%=      5-min Rain = 0
KHES 241740Z 05005KT 12/04 A3013 RMK A01 T01200040  RH  059%=      5-min Rain = 0
KHES 241745Z 07003KT 12/04 A3012 RMK A01 T01210038  RH  058%=      5-min Rain = 0
KHES 241750Z 08005KT 12/04 A3012 RMK A01 T01220035  RH  056%=      5-min Rain = 0
KHES 241755Z 08005KT 13/04 A3012 RMK A01 T01260039  RH  056%=      5-min Rain = 0
KHES 241800Z 04003KT 13/04 A3012 RMK A01 T01250038  RH  056%=      5-min Rain = 0
KHES 241805Z 04005KT 13/04 A3012 RMK A01 T01270036  RH  055%=      5-min Rain = 0
KHES 241810Z 05005KT 13/04 A3012 RMK A01 T01280035  RH  054%=      5-min Rain = 0
KHES 241815Z 05004KT 13/04 A3012 RMK A01 T01300038  RH  055%=      5-min Rain = 0
KHES 241820Z 06005KT 13/04 A3012 RMK A01 T01320036  RH  053%=      5-min Rain = 0
KHES 241825Z 04004KT 13/03 A3012 RMK A01 T01320034  RH  052%=      5-min Rain = 0
KHES 241830Z 05004KT 14/03 A3011 RMK A01 T01350032  RH  051%=      5-min Rain = 0
KHES 241835Z 10004KT 14/04 A3011 RMK A01 T01390037  RH  051%=      5-min Rain = 0
KHES 241840Z 10002KT 14/04 A3011 RMK A01 T01400036  RH  051%=      5-min Rain = 0
KHES 241845Z 06002KT 14/04 A3011 RMK A01 T01420041  RH  052%=      5-min Rain = 0
KHES 241850Z 05002KT 15/04 A3011 RMK A01 T01460040  RH  050%=      5-min Rain = 0
KHES 241855Z 08004KT 15/04 A3011 RMK A01 T01470039  RH  049%=      5-min Rain = 0
KHES 241900Z 13004KT 14/04 A3011 RMK A01 T01440038  RH  050%=      5-min Rain = 0
KHES 241905Z 10002KT 15/04 A301 RMK A01 T01490038  RH  048%=      5-min Rain = 0
KHES 241910Z 10005KT 15/04 A301 RMK A01 T01520042  RH  049%=      5-min Rain = 0
KHES 241915Z 11005KT 15/04 A301 RMK A01 T01500038  RH  048%=      5-min Rain = 0
KHES 241920Z 18003KT 15/04 A301 RMK A01 T01500035  RH  047%=      5-min Rain = 0
KHES 241925Z 09004KT 15/04 A301 RMK A01 T01520039  RH  048%=      5-min Rain = 0
KHES 241930Z 11004KT 15/04 A3009 RMK A01 T01470035  RH  048%=      5-min Rain = 0
KHES 241935Z 18001KT 15/03 A3009 RMK A01 T01530032  RH  045%=      5-min Rain = 0
KHES 241940Z 25003KT 16/03 A3009 RMK A01 T01550029  RH  044%=      5-min Rain = 0
KHES 241945Z 26001KT 16/03 A3009 RMK A01 T01550030  RH  044%=      5-min Rain = 0
KHES 241950Z 04002KT 16/03 A3009 RMK A01 T01610031  RH  043%=      5-min Rain = 0
KHES 241955Z 04003KT 16/03 A3009 RMK A01 T01590034  RH  044%=      5-min Rain = 0
KHES 242000Z 26003KT 16/03 A3009 RMK A01 T01570030  RH  043%=      5-min Rain = 0
KHES 242005Z 30002KT 16/03 A3008 RMK A01 T01570026  RH  042%=      5-min Rain = 0
KHES 242010Z 28001KT 16/03 A3008 RMK A01 T01560025  RH  042%=      5-min Rain = 0
KHES 242015Z 01002KT 16/03 A3008 RMK A01 T01580028  RH  043%=      5-min Rain = 0
KHES 242020Z 00002KT 16/03 A3008 RMK A01 T01580031  RH  043%=      5-min Rain = 0
KHES 242025Z 24003KT 16/03 A3008 RMK A01 T01600033  RH  043%=      5-min Rain = 0
KHES 242030Z 25003KT 16/04 A3008 RMK A01 T01620035  RH  043%=      5-min Rain = 0
KHES 242035Z 24003KT 16/04 A3008 RMK A01 T01630036  RH  043%=      5-min Rain = 0
KHES 242040Z 26001KT 17/04 A3008 RMK A01 T01680036  RH  042%=      5-min Rain = 0
KHES 242045Z 21002KT 17/03 A3008 RMK A01 T01710030  RH  040%=      5-min Rain = 0
KHES 242050Z 20003KT 17/03 A3008 RMK A01 T01690030  RH  040%=      5-min Rain = 0
KHES 242055Z 22004KT 17/03 A3008 RMK A01 T01690033  RH  041%=      5-min Rain = 0
KHES 242100Z 24004KT 16/03 A3008 RMK A01 T01640033  RH  042%=      5-min Rain = 0
KHES 242105Z 30002KT 17/03 A3008 RMK A01 T01670031  RH  041%=      5-min Rain = 0
KHES 242110Z 26002KT 17/03 A3008 RMK A01 T01690034  RH  041%=      5-min Rain = 0
KHES 242115Z 18005KT 17/03 A3007 RMK A01 T01710033  RH  041%=      5-min Rain = 0
KHES 242120Z 19004KT 17/03 A3007 RMK A01 T01680030  RH  041%=      5-min Rain = 0
KHES 242125Z 21003KT 17/03 A3007 RMK A01 T01680032  RH  041%=      5-min Rain = 0
KHES 242130Z 17003KT 17/03 A3007 RMK A01 T01710028  RH  039%=      5-min Rain = 0
KHES 242135Z 15003KT 17/02 A3006 RMK A01 T01710024  RH  038%=      5-min Rain = 0
KHES 242140Z 17002KT 17/03 A3006 RMK A01 T01730027  RH  038%=      5-min Rain = 0
KHES 242145Z 17003KT 17/03 A3006 RMK A01 T01730025  RH  038%=      5-min Rain = 0
KHES 242150Z 14002KT 18/03 A3006 RMK A01 T01750028  RH  038%=      5-min Rain = 0
KHES 242155Z 18004KT 18/04 A3006 RMK A01 T01770035  RH  040%=      5-min Rain = 0
KHES 242200Z 18006KT 18/03 A3006 RMK A01 T01760031  RH  038%=      5-min Rain = 0
KHES 242205Z 18003KT 17/02 A3006 RMK A01 T01740022  RH  037%=      5-min Rain = 0
KHES 242210Z 24003KT 18/03 A3006 RMK A01 T01770025  RH  037%=      5-min Rain = 0
KHES 242215Z 22003KT 18/02 A3006 RMK A01 T01780024  RH  036%=      5-min Rain = 0
KHES 242220Z 28001KT 18/02 A3006 RMK A01 T01790020  RH  035%=      5-min Rain = 0
KHES 242225Z 36001KT 18/02 A3006 RMK A01 T01840022  RH  034%=      5-min Rain = 0
KHES 242230Z 09001KT 18/02 A3005 RMK A01 T01820020  RH  034%=      5-min Rain = 0
KHES 242235Z 12002KT 18/03 A3005 RMK A01 T01840026  RH  035%=      5-min Rain = 0
KHES 242240Z 16003KT 18/02 A3005 RMK A01 T01840022  RH  034%=      5-min Rain = 0
KHES 242245Z 17001KT 19/02 A3005 RMK A01 T01860024  RH  034%=      5-min Rain = 0
KHES 242250Z 14002G7KT 19/03 A3005 RMK A01 T01920025  RH  034%=      5-min Rain = 0
KHES 242255Z 19001KT 19/02 A3005 RMK A01 T01880020  RH  033%=      5-min Rain = 0
KHES 242300Z 13003KT 19/02 A3004 RMK A01 T01900019  RH  032%=      5-min Rain = 0
KHES 242305Z 08001KT 19/01 A3004 RMK A01 T01920014  RH  031%=      5-min Rain = 0
KHES 242310Z 14002KT 19/02 A3004 RMK A01 T01920015  RH  031%=      5-min Rain = 0
KHES 242315Z 12005KT 19/02 A3004 RMK A01 T01900018  RH  032%=      5-min Rain = 0
KHES 242320Z 13002KT 19/02 A3004 RMK A01 T01880017  RH  032%=      5-min Rain = 0
KHES 242325Z 14004KT 19/02 A3004 RMK A01 T01920021  RH  032%=      5-min Rain = 0
KHES 242330Z 13004KT 19/02 A3003 RMK A01 T01880020  RH  033%=      5-min Rain = 0
KHES 242335Z 13004KT 19/02 A3004 RMK A01 T01890021  RH  033%=      5-min Rain = 0
KHES 242340Z 10004KT 19/03 A3004 RMK A01 T01880029  RH  035%=      5-min Rain = 0
KHES 242345Z 08006KT 19/03 A3004 RMK A01 T01850027  RH  035%=      5-min Rain = 0
KHES 242350Z 09006KT 18/03 A3004 RMK A01 T01830026  RH  036%=      5-min Rain = 0
KHES 242355Z 10005KT 18/03 A3004 RMK A01 T01840032  RH  037%=      5-min Rain = 0
KHES 250000Z 10006KT 18/03 A3003 RMK A01 T01830028  RH  036%=      5-min Rain = 0
KHES 250005Z 10006KT 18/02 A3003 RMK A01 T01830018  RH  034%=      5-min Rain = 0
KHES 250010Z 08005KT 18/03 A3003 RMK A01 T01820034  RH  038%=      5-min Rain = 0
KHES 250015Z 07006KT 18/03 A3003 RMK A01 T01780034  RH  039%=      5-min Rain = 0
KHES 250020Z 07006KT 18/04 A3003 RMK A01 T01770035  RH  040%=      5-min Rain = 0
KHES 250025Z 07007KT 18/03 A3003 RMK A01 T01750031  RH  039%=      5-min Rain = 0
KHES 250030Z 07006KT 18/03 A3003 RMK A01 T01750032  RH  039%=      5-min Rain = 0
KHES 250035Z 07006KT 17/03 A3003 RMK A01 T01740032  RH  039%=      5-min Rain = 0
KHES 250040Z 07005KT 17/03 A3003 RMK A01 T01740032  RH  040%=      5-min Rain = 0
KHES 250045Z 09005KT 17/03 A3003 RMK A01 T01720030  RH  039%=      5-min Rain = 0
KHES 250050Z 09005KT 17/03 A3003 RMK A01 T01710027  RH  039%=      5-min Rain = 0
KHES 250055Z 09005KT 17/02 A3003 RMK A01 T01680024  RH  038%=      5-min Rain = 0
KHES 250100Z 09004KT 17/02 A3003 RMK A01 T01680023  RH  038%=      5-min Rain = 0
KHES 250105Z 10004KT 16/02 A3003 RMK A01 T01640023  RH  039%=      5-min Rain = 0
KHES 250110Z 10004KT 17/02 A3003 RMK A01 T01650020  RH  038%=      5-min Rain = 0
KHES 250115Z 10004KT 17/02 A3003 RMK A01 T01650021  RH  039%=      5-min Rain = 0
KHES 250120Z 10005KT 16/02 A3003 RMK A01 T01600023  RH  040%=      5-min Rain = 0
KHES 250125Z 10005KT 16/03 A3004 RMK A01 T01550025  RH  042%=      5-min Rain = 0
KHES 250130Z 10005KT 15/03 A3004 RMK A01 T01520025  RH  043%=      5-min Rain = 0
KHES 250135Z 09006KT 15/03 A3004 RMK A01 T01480029  RH  045%=      5-min Rain = 0
KHES 250140Z 10008KT 15/03 A3004 RMK A01 T01470033  RH  047%=      5-min Rain = 0
KHES 250145Z 10008KT 15/03 A3005 RMK A01 T01480032  RH  047%=      5-min Rain = 0
KHES 250150Z 11007KT 14/04 A3005 RMK A01 T01440035  RH  049%=      5-min Rain = 0
KHES 250155Z 11006KT 14/04 A3005 RMK A01 T01420038  RH  051%=      5-min Rain = 0
KHES 250200Z 11006KT 14/04 A3006 RMK A01 T01380040  RH  052%=      5-min Rain = 0
KHES 250205Z 10008KT 14/04 A3006 RMK A01 T01360040  RH  053%=      5-min Rain = 0
KHES 250210Z 13005KT 14/04 A3006 RMK A01 T01350040  RH  054%=      5-min Rain = 0
KHES 250215Z 17004KT 13/04 A3006 RMK A01 T01300039  RH  055%=      5-min Rain = 0
KHES 250220Z 15005KT 13/04 A3006 RMK A01 T01290039  RH  055%=      5-min Rain = 0
KHES 250225Z 14006KT 13/04 A3006 RMK A01 T01300037  RH  054%=      5-min Rain = 0
KHES 250230Z 15006KT 13/04 A3006 RMK A01 T01320035  RH  053%=      5-min Rain = 0
KHES 250235Z 16005KT 13/04 A3007 RMK A01 T01250037  RH  056%=      5-min Rain = 0
KHES 250240Z 16006KT 12/04 A3007 RMK A01 T01190037  RH  058%=      5-min Rain = 0
KHES 250245Z 16008KT 12/04 A3007 RMK A01 T01190036  RH  058%=      5-min Rain = 0
KHES 250250Z 15008KT 12/04 A3008 RMK A01 T01200035  RH  057%=      5-min Rain = 0
KHES 250255Z 14006KT 12/03 A3008 RMK A01 T01210034  RH  056%=      5-min Rain = 0
KHES 250300Z 01006KT 12/04 A3009 RMK A01 T01150042  RH  062%=      5-min Rain = 0
KHES 250305Z 05008KT 10/05 A3009 RMK A01 T01030047  RH  070%=      5-min Rain = 0
KHES 250310Z 09008KT 10/04 A3009 RMK A01 T01030043  RH  067%=      5-min Rain = 0
KHES 250315Z 10005KT 11/04 A3009 RMK A01 T01080039  RH  063%=      5-min Rain = 0
KHES 250320Z 24003KT 10/04 A301 RMK A01 T01000038  RH  066%=      5-min Rain = 0
KHES 250325Z 08005KT 11/04 A301 RMK A01 T01060037  RH  063%=      5-min Rain = 0
KHES 250330Z 32006G11KT 11/04 A3011 RMK A01 T01050039  RH  065%=      5-min Rain = 0
KHES 250335Z 02006KT 10/04 A3011 RMK A01 T01010041  RH  067%=      5-min Rain = 0
KHES 250340Z 03005KT 10/04 A3011 RMK A01 T01040040  RH  066%=      5-min Rain = 0
KHES 250345Z 09006KT 11/04 A3011 RMK A01 T01060037  RH  063%=      5-min Rain = 0
KHES 250350Z 11004KT 11/04 A3012 RMK A01 T01110035  RH  060%=      5-min Rain = 0
KHES 250355Z 09003KT 11/03 A3012 RMK A01 T01080033  RH  061%=      5-min Rain = 0
KHES 250400Z 16001KT 10/03 A3012 RMK A01 T01020033  RH  063%=      5-min Rain = 0
KHES 250405Z 04001KT 10/03 A3012 RMK A01 T01010033  RH  064%=      5-min Rain = 0
KHES 250410Z 05002KT 11/03 A3012 RMK A01 T01080030  RH  060%=      5-min Rain = 0
KHES 250415Z 11004KT 11/03 A3012 RMK A01 T01120028  RH  057%=      5-min Rain = 0
KHES 250420Z 11006KT 11/03 A3012 RMK A01 T01110028  RH  058%=      5-min Rain = 0
KHES 250425Z 11007KT 11/03 A3012 RMK A01 T01120028  RH  057%=      5-min Rain = 0
KHES 250430Z 11007KT 11/03 A3012 RMK A01 T01130028  RH  056%=      5-min Rain = 0
KHES 250435Z 11009KT 11/03 A3012 RMK A01 T01130027  RH  056%=      5-min Rain = 0
KHES 250440Z 12007KT 11/03 A3012 RMK A01 T01140027  RH  056%=      5-min Rain = 0
KHES 250445Z 12008KT 11/03 A3012 RMK A01 T01140027  RH  056%=      5-min Rain = 0
KHES 250450Z 13008G13KT 12/03 A3012 RMK A01 T01160026  RH  055%=      5-min Rain = 0
KHES 250455Z 13006KT 12/03 A3012 RMK A01 T01170026  RH  054%=      5-min Rain = 0

Page generated in 0.0235 seconds.